»·PEaware :: N667SB KORD-KSTL

N667SB :: KORD-KSTL

FLIGHT INFORMATION

Flight Status: Arrived
Operator: Privately registered:
United States
More flights under this callsign
Pilot: Dean S. (16265)
Aircraft: CESSNA 421 GOLDEN EAGLE
(C421)
More flights by this aircraft type
Origin: KORD Chicago-O'Hare Intl
United States
Destination: KSTL Lambert-St Louis Intl
United States
More flights between these airports :: More routes between these airports
Route: BMI SPI TOY
File this flight plan on PilotEdge
Remarks:
Altitude:
(Current/Filed)
16,500ft
Speed:
(Current/Filed)
250kts
Departed: 25-Aug-18 10:32 AM
Arrived: 25-Aug-18 11:42 AM
Distance/Time
Traveled:
224nm/1:10
Distance/Time
To Go:
Arrived

Flight Plot

Page will automatically refresh every two minutes.


Map Options




Map Legend


Flown Route
Filed Route
Departure Airport
Arrival Airport
Navaid (VOR, NDB)
Fix

Horizontal Profiles

Position Reports

Time Latitude Longitude Heading Altitude Ground
Speed
25-Aug-18 10:00 41.976872 -87.910118 279 672ft 0kts
25-Aug-18 10:01 41.976872 -87.910120 279 672ft 0kts
25-Aug-18 10:02 41.976873 -87.910121 279 672ft 0kts
25-Aug-18 10:03 41.976873 -87.910122 279 672ft 0kts
25-Aug-18 10:04 41.976873 -87.910123 279 672ft 0kts
25-Aug-18 10:05 41.976873 -87.910124 279 672ft 0kts
25-Aug-18 10:06 41.976873 -87.910126 279 672ft 0kts
25-Aug-18 10:07 41.976873 -87.910127 279 672ft 0kts
25-Aug-18 10:08 41.976874 -87.910128 279 672ft 0kts
25-Aug-18 10:09 41.976874 -87.910129 279 672ft 0kts
25-Aug-18 10:10 41.976874 -87.910130 279 672ft 0kts
25-Aug-18 10:11 41.976874 -87.910132 279 672ft 0kts
25-Aug-18 10:12 41.976874 -87.910133 279 672ft 0kts
25-Aug-18 10:13 41.976874 -87.910134 279 672ft 0kts
25-Aug-18 10:14 41.976874 -87.910135 279 672ft 0kts
25-Aug-18 10:15 41.976875 -87.910137 279 672ft 0kts
25-Aug-18 10:16 41.976875 -87.910138 279 672ft 0kts
25-Aug-18 10:17 41.976751 -87.909367 182 672ft 8kts
25-Aug-18 10:18 41.974924 -87.911733 183 672ft 8kts
25-Aug-18 10:19 41.972746 -87.910168 233 673ft 12kts
25-Aug-18 10:20 41.971042 -87.909151 150 672ft 0kts
25-Aug-18 10:21 41.970659 -87.910865 315 672ft 0kts
25-Aug-18 10:25 41.974311 -87.899800 280 672ft 0kts
25-Aug-18 10:26 41.974311 -87.899800 280 672ft 0kts
25-Aug-18 10:27 41.974311 -87.899800 280 672ft 0kts
25-Aug-18 10:28 41.974311 -87.899801 280 672ft 0kts
25-Aug-18 10:29 41.973142 -87.898142 139 672ft 6kts
25-Aug-18 10:30 41.971883 -87.892178 65 673ft 19kts
25-Aug-18 10:31 41.971998 -87.883861 91 673ft 22kts
25-Aug-18 10:32 41.971028 -87.880471 191 672ft 0kts
25-Aug-18 10:33 41.963908 -87.886917 220 692ft 112kts
25-Aug-18 10:34 41.936229 -87.919004 219 2114ft 148kts
25-Aug-18 10:35 41.898146 -87.957065 212 2968ft 192kts
25-Aug-18 10:36 41.849295 -87.998735 212 3010ft 215kts
25-Aug-18 10:37 41.797258 -88.035467 204 3585ft 197kts
25-Aug-18 10:38 41.752476 -88.065276 207 5525ft 159kts
25-Aug-18 10:39 41.714404 -88.091612 207 7698ft 161kts
25-Aug-18 10:40 41.670403 -88.122162 207 9238ft 189kts
25-Aug-18 10:41 41.622018 -88.155711 207 10752ft 199kts
25-Aug-18 10:42 41.572263 -88.190149 207 12253ft 203kts
25-Aug-18 10:43 41.521749 -88.225034 207 13753ft 205kts
25-Aug-18 10:44 41.470625 -88.260213 207 15352ft 203kts
25-Aug-18 10:45 41.420259 -88.294882 207 16504ft 220kts
25-Aug-18 10:46 41.362660 -88.334468 207 16498ft 242kts
25-Aug-18 10:47 41.301873 -88.376111 207 16496ft 247kts
25-Aug-18 10:48 41.240367 -88.418181 207 16496ft 248kts
25-Aug-18 10:49 41.178797 -88.460206 207 16496ft 248kts
25-Aug-18 10:50 41.117383 -88.502036 207 16496ft 248kts
25-Aug-18 10:51 41.055973 -88.543776 207 16496ft 248kts
25-Aug-18 10:52 40.994340 -88.585578 207 16496ft 248kts
25-Aug-18 10:53 40.932880 -88.627175 207 16496ft 248kts
25-Aug-18 10:54 40.871216 -88.668823 206 16496ft 248kts
25-Aug-18 10:55 40.809748 -88.710250 206 16496ft 248kts
25-Aug-18 10:56 40.748236 -88.751619 206 16496ft 248kts
25-Aug-18 10:57 40.686517 -88.793037 206 16496ft 248kts
25-Aug-18 10:58 40.624991 -88.834242 206 16496ft 248kts
25-Aug-18 10:59 40.563450 -88.875375 206 16496ft 248kts
25-Aug-18 11:00 40.501678 -88.916590 206 16496ft 248kts
25-Aug-18 11:01 40.446391 -88.969821 221 16497ft 248kts
25-Aug-18 11:02 40.394829 -89.030489 221 16496ft 248kts
25-Aug-18 11:03 40.343355 -89.090821 221 16496ft 248kts
25-Aug-18 11:04 40.291698 -89.151249 221 16496ft 248kts
25-Aug-18 11:05 40.240175 -89.211401 221 16496ft 248kts
25-Aug-18 11:06 40.188616 -89.271469 221 16496ft 248kts
25-Aug-18 11:07 40.136860 -89.331639 221 16496ft 248kts
25-Aug-18 11:08 40.085241 -89.391520 221 16496ft 248kts
25-Aug-18 11:09 40.033411 -89.451521 221 16496ft 248kts
25-Aug-18 11:10 39.981725 -89.511228 221 16496ft 248kts
25-Aug-18 11:11 39.930013 -89.570837 221 16496ft 248kts
25-Aug-18 11:12 39.878097 -89.630558 221 16496ft 248kts
25-Aug-18 11:13 39.821975 -89.680422 189 16497ft 248kts
25-Aug-18 11:14 39.754361 -89.694215 189 15870ft 247kts
25-Aug-18 11:15 39.686565 -89.710541 191 14573ft 247kts
25-Aug-18 11:16 39.619891 -89.729604 192 13274ft 243kts
25-Aug-18 11:17 39.554282 -89.748686 192 11971ft 238kts
25-Aug-18 11:18 39.490174 -89.767272 192 10672ft 233kts
25-Aug-18 11:19 39.427574 -89.785380 192 9374ft 228kts
25-Aug-18 11:20 39.366368 -89.803052 192 8070ft 222kts
25-Aug-18 11:21 39.306963 -89.820175 192 6772ft 216kts
25-Aug-18 11:22 39.252355 -89.835890 192 6493ft 186kts
25-Aug-18 11:23 39.203270 -89.849999 192 6495ft 177kts
25-Aug-18 11:24 39.155291 -89.863768 192 6496ft 176kts
25-Aug-18 11:25 39.107351 -89.877505 192 6496ft 176kts
25-Aug-18 11:26 39.054582 -89.893653 193 5887ft 218kts
25-Aug-18 11:27 38.993785 -89.911247 192 5126ft 223kts
25-Aug-18 11:28 38.935087 -89.927989 192 4996ft 210kts
25-Aug-18 11:29 38.878392 -89.944145 192 4996ft 208kts
25-Aug-18 11:30 38.821725 -89.960264 192 4994ft 208kts
25-Aug-18 11:31 38.765231 -89.976303 192 4942ft 202kts
25-Aug-18 11:32 38.711413 -89.991528 192 4465ft 195kts
25-Aug-18 11:33 38.659511 -90.006222 192 4254ft 193kts
25-Aug-18 11:34 38.608589 -90.023738 209 3931ft 196kts
25-Aug-18 11:35 38.577820 -90.074668 273 3974ft 177kts
25-Aug-18 11:36 38.617146 -90.115715 318 3196ft 187kts
25-Aug-18 11:37 38.644293 -90.159932 303 2616ft 146kts
25-Aug-18 11:38 38.664670 -90.200225 304 2013ft 127kts
25-Aug-18 11:39 38.683777 -90.236646 302 2041ft 110kts
25-Aug-18 11:40 38.699734 -90.269258 301 1926ft 106kts
25-Aug-18 11:41 38.715222 -90.300821 301 1380ft 101kts
25-Aug-18 11:42 38.729511 -90.329890 302 859ft 90kts
25-Aug-18 11:43 38.742331 -90.355663 293 608ft 39kts
25-Aug-18 11:44 38.743161 -90.361638 298 608ft 24kts
25-Aug-18 11:45 38.743024 -90.362584 309 608ft 0kts
25-Aug-18 11:46 38.743024 -90.362584 309 608ft 0kts
25-Aug-18 11:47 38.743024 -90.362584 309 608ft 0kts
25-Aug-18 11:48 38.743024 -90.362584 309 608ft 0kts
25-Aug-18 11:49 38.743024 -90.362584 309 608ft 0kts
25-Aug-18 11:50 38.743024 -90.362584 309 608ft 0kts
25-Aug-18 11:51 38.743024 -90.362584 309 608ft 0kts
25-Aug-18 11:52 38.743024 -90.362584 309 608ft 0kts
25-Aug-18 11:53 38.743024 -90.362584 309 608ft 0kts
25-Aug-18 11:54 38.743024 -90.362584 309 608ft 0kts
25-Aug-18 11:55 38.743024 -90.362584 309 608ft 0kts
25-Aug-18 11:56 38.743024 -90.362584 309 608ft 0kts
25-Aug-18 11:57 38.743024 -90.362584 309 608ft 0kts
25-Aug-18 11:58 38.743024 -90.362584 309 608ft 0kts

Navigation Log

Ident Type
Flight plan parsing failed, navigation log unavailable